Lake Charles, LA

4:24 PM CST on March 06, 2015 (GMT -0600)
LCB Academy | Change Station
CLOSE
Current Station
Personal Weather Station
Location: Lake Charles, LA
Elevation: 33 ft
Nearby Weather Stations

Elev 33 ft 30.22 °N, 93.20 °W | Updated 4 minutes ago

Partly Cloudy
Partly Cloudy
59.9 °F
Feels Like 59.9 °F
N
3.0
Wind Variable Wind from NE
Gusts 10.0 mph

Today
High -- | Low -- °F
--% Chance of Precip.
Yesterday
High -- | Low -- °F
Precip. -- in
6:33 AM 6:15 PM
Full, 99% visible
Pressure 30.47 in
Visibility 10.0 miles
Clouds Clear
Dew Point 23 °F
Humidity 24%
Rainfall in
Snow Depth Not available.
UV 5 out of 12
Pollen 7.70 out of 12
Air Quality Not available.
Flu Activity Not available.
METAR KCWF 062050Z 01007KT 10SM SKC 10/M09 A3047

More Conditions Fewer Conditions

Pressure 30.47 in
Visibility 10.0 miles
Clouds Clear
Dew Point 23 °F
Humidity 24%
Rainfall in
Snow Depth Not available.
UV 5 out of 12
Pollen 7.70 out of 12
Air Quality Not available.
Flu Activity Not available.
METAR KCWF 062050Z 01007KT 10SM SKC 10/M09 A3047

More Conditions Fewer Conditions

10-Day Weather Forecast

Almanac

Astronomy

Mar. 06, 2015 Rise Set
Actual Time
Civil Twilight
Nautical Twilight
Astronomical Twilight
Moon
Length of Visible Light
Length of Day
Tomorrow will be .
, % of the Moon is Illuminated

Today's Extremes

State Highs State Lows

Community

WunderPhotos

Upload Photos

1,803,420 photos uploaded!

WunderBlogs® & News

Nearby

Air Quality

  Air Quality AQ Index Pollutant
Not available.

Snow Depth

Station Depth Elevation

Earthquake Activity

City Distance Mag. Time & Date
Minimum magnitude displayed is 2.5.

Coastal Water Temperatures

Place Temperature

Nearby Weather Stations